sensor_id;sensor_type;location;lat;lon;timestamp;P1;durP1;ratioP1;P2;durP2;ratioP2
56005;SDS011;41888;44.696;10.522;2023-02-16T00:00:27;54.83;;;20.27;;
56005;SDS011;41888;44.696;10.522;2023-02-16T00:02:54;60.42;;;21.30;;
56005;SDS011;41888;44.696;10.522;2023-02-16T00:05:25;46.80;;;20.00;;
56005;SDS011;41888;44.696;10.522;2023-02-16T00:07:54;46.78;;;18.50;;
56005;SDS011;41888;44.696;10.522;2023-02-16T00:10:21;44.25;;;19.70;;
56005;SDS011;41888;44.696;10.522;2023-02-16T00:12:48;51.03;;;18.55;;
56005;SDS011;41888;44.696;10.522;2023-02-16T00:15:34;54.95;;;19.50;;
56005;SDS011;41888;44.696;10.522;2023-02-16T00:18:01;44.97;;;18.45;;
56005;SDS011;41888;44.696;10.522;2023-02-16T00:20:28;46.72;;;18.92;;
56005;SDS011;41888;44.696;10.522;2023-02-16T00:22:54;49.65;;;19.13;;
56005;SDS011;41888;44.696;10.522;2023-02-16T00:25:21;49.83;;;17.77;;
56005;SDS011;41888;44.696;10.522;2023-02-16T00:27:47;54.35;;;17.83;;
56005;SDS011;41888;44.696;10.522;2023-02-16T00:30:14;42.35;;;16.60;;
56005;SDS011;41888;44.696;10.522;2023-02-16T00:32:42;39.78;;;15.80;;
56005;SDS011;41888;44.696;10.522;2023-02-16T00:35:18;37.85;;;15.00;;
56005;SDS011;41888;44.696;10.522;2023-02-16T00:37:46;45.05;;;15.93;;
56005;SDS011;41888;44.696;10.522;2023-02-16T00:40:13;36.45;;;14.70;;
56005;SDS011;41888;44.696;10.522;2023-02-16T00:42:41;37.65;;;14.63;;
56005;SDS011;41888;44.696;10.522;2023-02-16T00:45:16;40.10;;;15.10;;
56005;SDS011;41888;44.696;10.522;2023-02-16T00:47:44;36.03;;;15.18;;
56005;SDS011;41888;44.696;10.522;2023-02-16T00:57:53;38.22;;;15.00;;
56005;SDS011;41888;44.696;10.522;2023-02-16T01:00:41;38.88;;;15.57;;
56005;SDS011;41888;44.696;10.522;2023-02-16T01:03:15;40.05;;;15.90;;
56005;SDS011;41888;44.696;10.522;2023-02-16T01:05:48;37.85;;;14.13;;
56005;SDS011;41888;44.696;10.522;2023-02-16T01:08:34;36.75;;;14.88;;
56005;SDS011;41888;44.696;10.522;2023-02-16T01:11:19;28.33;;;12.90;;
56005;SDS011;41888;44.696;10.522;2023-02-16T01:13:48;33.92;;;14.75;;
56005;SDS011;41888;44.696;10.522;2023-02-16T01:16:25;35.50;;;12.68;;
56005;SDS011;41888;44.696;10.522;2023-02-16T01:18:59;35.17;;;13.20;;
56005;SDS011;41888;44.696;10.522;2023-02-16T01:21:25;33.35;;;11.48;;
56005;SDS011;41888;44.696;10.522;2023-02-16T01:23:51;42.65;;;15.45;;
56005;SDS011;41888;44.696;10.522;2023-02-16T01:26:18;33.67;;;13.27;;
56005;SDS011;41888;44.696;10.522;2023-02-16T01:28:48;32.15;;;12.13;;
56005;SDS011;41888;44.696;10.522;2023-02-16T01:31:14;32.70;;;11.73;;
56005;SDS011;41888;44.696;10.522;2023-02-16T01:33:41;30.42;;;12.88;;
56005;SDS011;41888;44.696;10.522;2023-02-16T01:38:55;35.13;;;13.02;;
56005;SDS011;41888;44.696;10.522;2023-02-16T01:44:13;35.67;;;15.13;;
56005;SDS011;41888;44.696;10.522;2023-02-16T01:49:50;39.28;;;15.70;;
56005;SDS011;41888;44.696;10.522;2023-02-16T01:52:26;37.75;;;15.65;;
56005;SDS011;41888;44.696;10.522;2023-02-16T02:04:00;37.40;;;13.93;;
56005;SDS011;41888;44.696;10.522;2023-02-16T02:06:52;37.88;;;14.35;;
56005;SDS011;41888;44.696;10.522;2023-02-16T02:09:20;30.23;;;13.10;;
56005;SDS011;41888;44.696;10.522;2023-02-16T02:12:30;41.03;;;13.20;;
56005;SDS011;41888;44.696;10.522;2023-02-16T02:15:16;35.55;;;14.63;;
56005;SDS011;41888;44.696;10.522;2023-02-16T02:17:47;37.50;;;13.45;;
56005;SDS011;41888;44.696;10.522;2023-02-16T02:20:15;33.38;;;13.13;;
56005;SDS011;41888;44.696;10.522;2023-02-16T02:23:20;32.35;;;13.48;;
56005;SDS011;41888;44.696;10.522;2023-02-16T02:26:11;31.48;;;13.45;;
56005;SDS011;41888;44.696;10.522;2023-02-16T02:34:36;33.80;;;13.55;;
56005;SDS011;41888;44.696;10.522;2023-02-16T02:40:21;26.90;;;11.20;;
56005;SDS011;41888;44.696;10.522;2023-02-16T02:43:12;28.30;;;11.57;;
56005;SDS011;41888;44.696;10.522;2023-02-16T02:46:06;28.88;;;11.27;;
56005;SDS011;41888;44.696;10.522;2023-02-16T02:48:40;23.60;;;10.95;;
56005;SDS011;41888;44.696;10.522;2023-02-16T02:54:11;38.60;;;12.38;;
56005;SDS011;41888;44.696;10.522;2023-02-16T02:57:08;28.77;;;11.40;;
56005;SDS011;41888;44.696;10.522;2023-02-16T03:00:19;37.08;;;12.32;;
56005;SDS011;41888;44.696;10.522;2023-02-16T03:03:13;28.95;;;11.15;;
56005;SDS011;41888;44.696;10.522;2023-02-16T03:08:35;32.42;;;12.40;;
56005;SDS011;41888;44.696;10.522;2023-02-16T03:11:06;29.48;;;12.13;;
56005;SDS011;41888;44.696;10.522;2023-02-16T03:14:05;32.50;;;10.60;;
56005;SDS011;41888;44.696;10.522;2023-02-16T03:16:42;22.13;;;10.48;;
56005;SDS011;41888;44.696;10.522;2023-02-16T03:19:12;23.88;;;10.27;;
56005;SDS011;41888;44.696;10.522;2023-02-16T03:22:00;25.73;;;9.93;;
56005;SDS011;41888;44.696;10.522;2023-02-16T03:24:45;19.27;;;8.57;;
56005;SDS011;41888;44.696;10.522;2023-02-16T03:27:32;27.60;;;9.55;;
56005;SDS011;41888;44.696;10.522;2023-02-16T03:30:20;21.90;;;8.10;;
56005;SDS011;41888;44.696;10.522;2023-02-16T03:32:48;18.08;;;6.53;;
56005;SDS011;41888;44.696;10.522;2023-02-16T03:35:15;23.15;;;8.18;;
56005;SDS011;41888;44.696;10.522;2023-02-16T03:37:42;20.63;;;8.80;;
56005;SDS011;41888;44.696;10.522;2023-02-16T03:40:10;30.70;;;9.52;;
56005;SDS011;41888;44.696;10.522;2023-02-16T03:43:08;24.40;;;9.07;;
56005;SDS011;41888;44.696;10.522;2023-02-16T03:45:38;23.05;;;7.07;;
56005;SDS011;41888;44.696;10.522;2023-02-16T03:48:07;23.00;;;8.05;;
56005;SDS011;41888;44.696;10.522;2023-02-16T03:50:33;24.17;;;8.80;;
56005;SDS011;41888;44.696;10.522;2023-02-16T03:52:59;18.98;;;7.43;;
56005;SDS011;41888;44.696;10.522;2023-02-16T03:55:35;23.10;;;7.93;;
56005;SDS011;41888;44.696;10.522;2023-02-16T03:58:08;20.45;;;8.57;;
56005;SDS011;41888;44.696;10.522;2023-02-16T04:00:36;28.50;;;8.95;;
56005;SDS011;41888;44.696;10.522;2023-02-16T04:03:04;25.00;;;9.20;;
56005;SDS011;41888;44.696;10.522;2023-02-16T04:05:31;21.08;;;7.90;;
56005;SDS011;41888;44.696;10.522;2023-02-16T04:07:57;22.75;;;9.05;;
56005;SDS011;41888;44.696;10.522;2023-02-16T04:10:24;18.30;;;6.90;;
56005;SDS011;41888;44.696;10.522;2023-02-16T04:12:50;27.35;;;8.90;;
56005;SDS011;41888;44.696;10.522;2023-02-16T04:15:18;21.83;;;7.10;;
56005;SDS011;41888;44.696;10.522;2023-02-16T04:17:48;19.80;;;8.07;;
56005;SDS011;41888;44.696;10.522;2023-02-16T04:20:17;19.65;;;8.15;;
56005;SDS011;41888;44.696;10.522;2023-02-16T04:22:45;22.92;;;7.70;;
56005;SDS011;41888;44.696;10.522;2023-02-16T04:25:12;23.08;;;7.78;;
56005;SDS011;41888;44.696;10.522;2023-02-16T04:27:39;21.45;;;7.53;;
56005;SDS011;41888;44.696;10.522;2023-02-16T04:30:07;21.85;;;7.45;;
56005;SDS011;41888;44.696;10.522;2023-02-16T04:32:36;22.65;;;8.80;;
56005;SDS011;41888;44.696;10.522;2023-02-16T04:35:03;22.65;;;7.72;;
56005;SDS011;41888;44.696;10.522;2023-02-16T04:37:29;16.83;;;6.85;;
56005;SDS011;41888;44.696;10.522;2023-02-16T04:39:56;22.60;;;7.80;;
56005;SDS011;41888;44.696;10.522;2023-02-16T04:42:22;20.80;;;9.38;;
56005;SDS011;41888;44.696;10.522;2023-02-16T04:44:48;21.95;;;7.53;;
56005;SDS011;41888;44.696;10.522;2023-02-16T04:47:15;22.80;;;8.75;;
56005;SDS011;41888;44.696;10.522;2023-02-16T04:49:41;27.63;;;8.73;;
56005;SDS011;41888;44.696;10.522;2023-02-16T04:52:07;22.25;;;7.95;;
56005;SDS011;41888;44.696;10.522;2023-02-16T04:54:33;26.48;;;8.60;;
56005;SDS011;41888;44.696;10.522;2023-02-16T04:56:59;21.58;;;7.53;;
56005;SDS011;41888;44.696;10.522;2023-02-16T04:59:25;20.98;;;8.48;;
56005;SDS011;41888;44.696;10.522;2023-02-16T05:01:52;18.75;;;7.43;;
56005;SDS011;41888;44.696;10.522;2023-02-16T05:04:18;18.02;;;7.53;;
56005;SDS011;41888;44.696;10.522;2023-02-16T05:06:44;18.20;;;6.95;;
56005;SDS011;41888;44.696;10.522;2023-02-16T05:09:10;23.90;;;8.43;;
56005;SDS011;41888;44.696;10.522;2023-02-16T05:11:36;22.85;;;7.38;;
56005;SDS011;41888;44.696;10.522;2023-02-16T05:14:26;28.25;;;8.70;;
56005;SDS011;41888;44.696;10.522;2023-02-16T05:19:49;28.25;;;9.40;;
56005;SDS011;41888;44.696;10.522;2023-02-16T05:22:21;23.52;;;9.38;;
56005;SDS011;41888;44.696;10.522;2023-02-16T05:24:47;22.10;;;8.70;;
56005;SDS011;41888;44.696;10.522;2023-02-16T05:27:18;24.90;;;9.20;;
56005;SDS011;41888;44.696;10.522;2023-02-16T05:29:46;22.08;;;7.72;;
56005;SDS011;41888;44.696;10.522;2023-02-16T05:32:13;23.60;;;8.38;;
56005;SDS011;41888;44.696;10.522;2023-02-16T05:34:39;21.25;;;9.10;;
56005;SDS011;41888;44.696;10.522;2023-02-16T05:37:06;22.50;;;8.70;;
56005;SDS011;41888;44.696;10.522;2023-02-16T05:39:32;26.17;;;9.45;;
56005;SDS011;41888;44.696;10.522;2023-02-16T05:41:58;24.73;;;9.27;;
56005;SDS011;41888;44.696;10.522;2023-02-16T05:44:24;26.75;;;9.55;;
56005;SDS011;41888;44.696;10.522;2023-02-16T05:46:50;22.55;;;9.20;;
56005;SDS011;41888;44.696;10.522;2023-02-16T05:49:17;24.85;;;8.63;;
56005;SDS011;41888;44.696;10.522;2023-02-16T05:51:43;28.42;;;9.60;;
56005;SDS011;41888;44.696;10.522;2023-02-16T05:54:09;22.83;;;10.15;;
56005;SDS011;41888;44.696;10.522;2023-02-16T05:56:41;30.27;;;9.10;;
56005;SDS011;41888;44.696;10.522;2023-02-16T05:59:13;22.60;;;9.43;;
56005;SDS011;41888;44.696;10.522;2023-02-16T06:01:40;18.73;;;7.47;;
56005;SDS011;41888;44.696;10.522;2023-02-16T06:04:07;19.45;;;5.95;;
56005;SDS011;41888;44.696;10.522;2023-02-16T06:06:34;21.55;;;7.80;;
56005;SDS011;41888;44.696;10.522;2023-02-16T06:09:02;23.40;;;8.02;;
56005;SDS011;41888;44.696;10.522;2023-02-16T06:11:32;23.65;;;8.32;;
56005;SDS011;41888;44.696;10.522;2023-02-16T06:14:05;21.05;;;7.60;;
56005;SDS011;41888;44.696;10.522;2023-02-16T06:16:38;20.80;;;7.85;;
56005;SDS011;41888;44.696;10.522;2023-02-16T06:19:06;20.70;;;8.20;;
56005;SDS011;41888;44.696;10.522;2023-02-16T06:21:33;21.38;;;7.55;;
56005;SDS011;41888;44.696;10.522;2023-02-16T06:24:00;12.77;;;5.57;;
56005;SDS011;41888;44.696;10.522;2023-02-16T06:26:26;18.58;;;7.28;;
56005;SDS011;41888;44.696;10.522;2023-02-16T06:28:53;18.85;;;7.93;;
56005;SDS011;41888;44.696;10.522;2023-02-16T06:31:20;19.45;;;8.00;;
56005;SDS011;41888;44.696;10.522;2023-02-16T06:33:47;17.52;;;7.22;;
56005;SDS011;41888;44.696;10.522;2023-02-16T06:36:14;17.50;;;7.30;;
56005;SDS011;41888;44.696;10.522;2023-02-16T06:38:40;31.92;;;8.32;;
56005;SDS011;41888;44.696;10.522;2023-02-16T06:41:07;17.73;;;7.70;;
56005;SDS011;41888;44.696;10.522;2023-02-16T06:43:33;21.70;;;8.02;;
56005;SDS011;41888;44.696;10.522;2023-02-16T06:46:00;24.15;;;8.55;;
56005;SDS011;41888;44.696;10.522;2023-02-16T06:48:26;19.77;;;7.35;;
56005;SDS011;41888;44.696;10.522;2023-02-16T06:50:52;20.83;;;7.78;;
56005;SDS011;41888;44.696;10.522;2023-02-16T06:53:19;24.20;;;8.15;;
56005;SDS011;41888;44.696;10.522;2023-02-16T06:55:45;24.95;;;8.15;;
56005;SDS011;41888;44.696;10.522;2023-02-16T06:58:14;22.25;;;8.05;;
56005;SDS011;41888;44.696;10.522;2023-02-16T07:00:40;23.35;;;8.80;;
56005;SDS011;41888;44.696;10.522;2023-02-16T07:03:06;26.48;;;9.70;;
56005;SDS011;41888;44.696;10.522;2023-02-16T07:05:32;26.23;;;9.90;;
56005;SDS011;41888;44.696;10.522;2023-02-16T07:07:58;25.85;;;8.90;;
56005;SDS011;41888;44.696;10.522;2023-02-16T07:10:24;23.23;;;9.20;;
56005;SDS011;41888;44.696;10.522;2023-02-16T07:12:51;22.80;;;7.97;;
56005;SDS011;41888;44.696;10.522;2023-02-16T07:15:17;19.88;;;7.15;;
56005;SDS011;41888;44.696;10.522;2023-02-16T07:17:43;22.02;;;8.35;;
56005;SDS011;41888;44.696;10.522;2023-02-16T07:20:09;21.83;;;8.32;;
56005;SDS011;41888;44.696;10.522;2023-02-16T07:22:36;21.92;;;8.80;;
56005;SDS011;41888;44.696;10.522;2023-02-16T07:25:03;19.10;;;8.02;;
56005;SDS011;41888;44.696;10.522;2023-02-16T07:27:29;28.55;;;7.22;;
56005;SDS011;41888;44.696;10.522;2023-02-16T07:29:55;22.70;;;8.98;;
56005;SDS011;41888;44.696;10.522;2023-02-16T07:32:21;21.98;;;8.93;;
56005;SDS011;41888;44.696;10.522;2023-02-16T07:34:47;28.55;;;10.57;;
56005;SDS011;41888;44.696;10.522;2023-02-16T07:37:13;19.08;;;8.30;;
56005;SDS011;41888;44.696;10.522;2023-02-16T07:39:39;21.90;;;8.70;;
56005;SDS011;41888;44.696;10.522;2023-02-16T07:42:06;19.25;;;8.35;;
56005;SDS011;41888;44.696;10.522;2023-02-16T07:44:32;27.17;;;8.73;;
56005;SDS011;41888;44.696;10.522;2023-02-16T07:46:58;22.30;;;9.52;;
56005;SDS011;41888;44.696;10.522;2023-02-16T07:49:24;25.73;;;9.57;;
56005;SDS011;41888;44.696;10.522;2023-02-16T07:51:50;32.47;;;9.45;;
56005;SDS011;41888;44.696;10.522;2023-02-16T07:54:16;21.85;;;10.07;;
56005;SDS011;41888;44.696;10.522;2023-02-16T07:56:42;25.05;;;10.13;;
56005;SDS011;41888;44.696;10.522;2023-02-16T07:59:08;24.38;;;9.15;;
56005;SDS011;41888;44.696;10.522;2023-02-16T08:01:35;27.92;;;9.55;;
56005;SDS011;41888;44.696;10.522;2023-02-16T08:04:02;25.83;;;9.63;;
56005;SDS011;41888;44.696;10.522;2023-02-16T08:06:28;23.83;;;10.20;;
56005;SDS011;41888;44.696;10.522;2023-02-16T08:08:55;23.50;;;11.00;;
56005;SDS011;41888;44.696;10.522;2023-02-16T08:11:22;23.75;;;10.48;;
56005;SDS011;41888;44.696;10.522;2023-02-16T08:13:49;28.35;;;10.43;;
56005;SDS011;41888;44.696;10.522;2023-02-16T08:16:20;28.60;;;11.20;;
56005;SDS011;41888;44.696;10.522;2023-02-16T08:18:47;30.83;;;11.43;;
56005;SDS011;41888;44.696;10.522;2023-02-16T08:21:24;28.92;;;12.07;;
56005;SDS011;41888;44.696;10.522;2023-02-16T08:24:00;28.50;;;12.63;;
56005;SDS011;41888;44.696;10.522;2023-02-16T08:26:31;28.27;;;12.00;;
56005;SDS011;41888;44.696;10.522;2023-02-16T08:29:02;36.13;;;12.80;;
56005;SDS011;41888;44.696;10.522;2023-02-16T08:31:30;29.85;;;14.20;;
56005;SDS011;41888;44.696;10.522;2023-02-16T08:33:59;34.83;;;14.98;;
56005;SDS011;41888;44.696;10.522;2023-02-16T08:36:31;35.80;;;14.25;;
56005;SDS011;41888;44.696;10.522;2023-02-16T08:39:18;36.72;;;15.25;;
56005;SDS011;41888;44.696;10.522;2023-02-16T08:41:47;36.78;;;15.65;;
56005;SDS011;41888;44.696;10.522;2023-02-16T08:44:14;35.35;;;16.05;;
56005;SDS011;41888;44.696;10.522;2023-02-16T08:46:43;39.72;;;16.58;;
56005;SDS011;41888;44.696;10.522;2023-02-16T08:49:11;35.58;;;16.55;;
56005;SDS011;41888;44.696;10.522;2023-02-16T08:51:46;34.63;;;15.70;;
56005;SDS011;41888;44.696;10.522;2023-02-16T08:54:18;37.75;;;16.45;;
56005;SDS011;41888;44.696;10.522;2023-02-16T08:56:46;32.67;;;16.02;;
56005;SDS011;41888;44.696;10.522;2023-02-16T08:59:17;35.60;;;17.20;;
56005;SDS011;41888;44.696;10.522;2023-02-16T09:01:44;34.53;;;15.95;;
56005;SDS011;41888;44.696;10.522;2023-02-16T09:04:11;35.47;;;16.83;;
56005;SDS011;41888;44.696;10.522;2023-02-16T09:06:39;34.40;;;16.20;;
56005;SDS011;41888;44.696;10.522;2023-02-16T09:09:08;28.40;;;13.45;;
56005;SDS011;41888;44.696;10.522;2023-02-16T09:11:34;26.65;;;12.88;;
56005;SDS011;41888;44.696;10.522;2023-02-16T09:14:01;23.60;;;10.68;;
56005;SDS011;41888;44.696;10.522;2023-02-16T09:16:29;24.35;;;11.95;;
56005;SDS011;41888;44.696;10.522;2023-02-16T09:18:59;25.95;;;10.07;;
56005;SDS011;41888;44.696;10.522;2023-02-16T09:21:27;24.00;;;10.30;;
56005;SDS011;41888;44.696;10.522;2023-02-16T09:23:58;23.42;;;10.65;;
56005;SDS011;41888;44.696;10.522;2023-02-16T09:26:26;20.65;;;9.88;;
56005;SDS011;41888;44.696;10.522;2023-02-16T09:28:55;19.70;;;10.35;;
56005;SDS011;41888;44.696;10.522;2023-02-16T09:31:23;24.38;;;11.45;;
56005;SDS011;41888;44.696;10.522;2023-02-16T09:33:53;27.73;;;10.93;;
56005;SDS011;41888;44.696;10.522;2023-02-16T09:36:21;24.45;;;11.05;;
56005;SDS011;41888;44.696;10.522;2023-02-16T09:38:48;30.23;;;12.00;;
56005;SDS011;41888;44.696;10.522;2023-02-16T09:44:40;32.35;;;12.93;;
56005;SDS011;41888;44.696;10.522;2023-02-16T09:49:46;32.72;;;14.20;;
56005;SDS011;41888;44.696;10.522;2023-02-16T09:54:51;34.95;;;16.63;;
56005;SDS011;41888;44.696;10.522;2023-02-16T10:05:34;44.42;;;23.67;;
56005;SDS011;41888;44.696;10.522;2023-02-16T10:08:14;46.05;;;24.67;;
56005;SDS011;41888;44.696;10.522;2023-02-16T10:10:49;46.58;;;24.52;;
56005;SDS011;41888;44.696;10.522;2023-02-16T10:13:33;42.25;;;23.20;;
56005;SDS011;41888;44.696;10.522;2023-02-16T10:16:10;51.60;;;24.58;;
56005;SDS011;41888;44.696;10.522;2023-02-16T10:18:42;46.13;;;23.90;;
56005;SDS011;41888;44.696;10.522;2023-02-16T10:21:14;44.72;;;24.60;;
56005;SDS011;41888;44.696;10.522;2023-02-16T10:23:50;43.85;;;24.23;;
56005;SDS011;41888;44.696;10.522;2023-02-16T10:26:37;49.97;;;26.15;;
56005;SDS011;41888;44.696;10.522;2023-02-16T10:31:42;50.37;;;28.17;;
56005;SDS011;41888;44.696;10.522;2023-02-16T10:41:46;58.05;;;31.67;;
56005;SDS011;41888;44.696;10.522;2023-02-16T10:44:21;52.88;;;30.20;;
56005;SDS011;41888;44.696;10.522;2023-02-16T10:47:05;56.95;;;30.50;;
56005;SDS011;41888;44.696;10.522;2023-02-16T10:50:26;59.80;;;30.83;;
56005;SDS011;41888;44.696;10.522;2023-02-16T10:53:03;60.75;;;31.95;;
56005;SDS011;41888;44.696;10.522;2023-02-16T10:55:39;68.63;;;32.25;;
56005;SDS011;41888;44.696;10.522;2023-02-16T10:58:12;68.10;;;34.65;;
56005;SDS011;41888;44.696;10.522;2023-02-16T11:03:39;74.30;;;35.45;;
56005;SDS011;41888;44.696;10.522;2023-02-16T11:06:14;72.63;;;37.30;;
56005;SDS011;41888;44.696;10.522;2023-02-16T11:08:49;73.85;;;36.92;;
56005;SDS011;41888;44.696;10.522;2023-02-16T11:11:20;73.32;;;35.17;;
56005;SDS011;41888;44.696;10.522;2023-02-16T11:13:56;74.57;;;37.10;;
56005;SDS011;41888;44.696;10.522;2023-02-16T11:16:28;72.63;;;36.65;;
56005;SDS011;41888;44.696;10.522;2023-02-16T11:29:27;55.50;;;31.70;;
56005;SDS011;41888;44.696;10.522;2023-02-16T11:31:54;65.28;;;32.78;;
56005;SDS011;41888;44.696;10.522;2023-02-16T11:37:18;65.13;;;32.80;;
56005;SDS011;41888;44.696;10.522;2023-02-16T11:40:02;60.17;;;32.00;;
56005;SDS011;41888;44.696;10.522;2023-02-16T11:42:37;63.70;;;32.88;;
56005;SDS011;41888;44.696;10.522;2023-02-16T11:45:19;66.82;;;33.28;;
56005;SDS011;41888;44.696;10.522;2023-02-16T11:48:02;66.43;;;33.20;;
56005;SDS011;41888;44.696;10.522;2023-02-16T11:50:35;59.17;;;32.33;;
56005;SDS011;41888;44.696;10.522;2023-02-16T11:55:37;62.53;;;32.83;;
56005;SDS011;41888;44.696;10.522;2023-02-16T12:01:34;66.03;;;32.50;;
56005;SDS011;41888;44.696;10.522;2023-02-16T12:03:35;65.30;;;33.38;;
56005;SDS011;41888;44.696;10.522;2023-02-16T12:26:45;64.78;;;33.72;;
56005;SDS011;41888;44.696;10.522;2023-02-16T12:29:18;61.75;;;33.50;;
56005;SDS011;41888;44.696;10.522;2023-02-16T12:35:31;69.80;;;33.80;;
56005;SDS011;41888;44.696;10.522;2023-02-16T12:37:57;67.97;;;34.05;;
56005;SDS011;41888;44.696;10.522;2023-02-16T12:43:50;65.75;;;32.03;;
56005;SDS011;41888;44.696;10.522;2023-02-16T12:46:43;60.70;;;30.70;;
56005;SDS011;41888;44.696;10.522;2023-02-16T12:51:56;64.95;;;32.22;;
56005;SDS011;41888;44.696;10.522;2023-02-16T12:54:50;62.38;;;31.60;;
56005;SDS011;41888;44.696;10.522;2023-02-16T12:58:39;64.95;;;32.70;;
56005;SDS011;41888;44.696;10.522;2023-02-16T13:00:44;59.30;;;30.98;;
56005;SDS011;41888;44.696;10.522;2023-02-16T13:06:12;64.90;;;32.50;;
56005;SDS011;41888;44.696;10.522;2023-02-16T13:11:29;73.78;;;31.88;;
56005;SDS011;41888;44.696;10.522;2023-02-16T13:14:02;65.35;;;32.78;;
56005;SDS011;41888;44.696;10.522;2023-02-16T13:16:39;61.22;;;32.70;;
56005;SDS011;41888;44.696;10.522;2023-02-16T13:19:09;64.65;;;31.20;;
56005;SDS011;41888;44.696;10.522;2023-02-16T13:33:03;68.18;;;34.00;;
56005;SDS011;41888;44.696;10.522;2023-02-16T13:35:51;70.38;;;33.63;;
56005;SDS011;41888;44.696;10.522;2023-02-16T13:44:14;63.20;;;33.15;;
56005;SDS011;41888;44.696;10.522;2023-02-16T13:47:10;66.25;;;32.53;;
56005;SDS011;41888;44.696;10.522;2023-02-16T13:49:42;71.45;;;33.55;;
56005;SDS011;41888;44.696;10.522;2023-02-16T13:52:24;68.97;;;33.30;;
56005;SDS011;41888;44.696;10.522;2023-02-16T13:55:01;65.85;;;31.40;;
56005;SDS011;41888;44.696;10.522;2023-02-16T14:00:47;71.95;;;32.95;;
56005;SDS011;41888;44.696;10.522;2023-02-16T14:05:42;62.47;;;31.70;;
56005;SDS011;41888;44.696;10.522;2023-02-16T14:08:17;65.88;;;31.80;;
56005;SDS011;41888;44.696;10.522;2023-02-16T14:14:22;66.55;;;31.35;;
56005;SDS011;41888;44.696;10.522;2023-02-16T14:21:17;65.32;;;33.28;;
56005;SDS011;41888;44.696;10.522;2023-02-16T14:23:58;61.30;;;33.50;;
56005;SDS011;41888;44.696;10.522;2023-02-16T14:26:27;66.75;;;33.10;;
56005;SDS011;41888;44.696;10.522;2023-02-16T14:28:57;65.18;;;31.85;;
56005;SDS011;41888;44.696;10.522;2023-02-16T14:32:27;68.32;;;31.80;;
56005;SDS011;41888;44.696;10.522;2023-02-16T14:34:50;64.38;;;31.95;;
56005;SDS011;41888;44.696;10.522;2023-02-16T14:58:30;65.97;;;33.10;;
56005;SDS011;41888;44.696;10.522;2023-02-16T15:01:16;64.13;;;32.15;;
56005;SDS011;41888;44.696;10.522;2023-02-16T15:03:50;62.83;;;30.35;;
56005;SDS011;41888;44.696;10.522;2023-02-16T15:09:03;61.08;;;31.52;;
56005;SDS011;41888;44.696;10.522;2023-02-16T15:11:48;78.78;;;33.13;;
56005;SDS011;41888;44.696;10.522;2023-02-16T15:14:39;62.88;;;30.70;;
56005;SDS011;41888;44.696;10.522;2023-02-16T15:19:51;61.20;;;31.92;;
56005;SDS011;41888;44.696;10.522;2023-02-16T15:22:21;62.13;;;30.75;;
56005;SDS011;41888;44.696;10.522;2023-02-16T15:24:53;68.78;;;33.47;;
56005;SDS011;41888;44.696;10.522;2023-02-16T15:27:21;69.68;;;31.60;;
56005;SDS011;41888;44.696;10.522;2023-02-16T15:30:02;67.10;;;32.45;;
56005;SDS011;41888;44.696;10.522;2023-02-16T15:32:49;68.03;;;31.63;;
56005;SDS011;41888;44.696;10.522;2023-02-16T15:35:23;64.82;;;30.00;;
56005;SDS011;41888;44.696;10.522;2023-02-16T15:38:05;65.28;;;32.35;;
56005;SDS011;41888;44.696;10.522;2023-02-16T15:40:40;65.18;;;31.83;;
56005;SDS011;41888;44.696;10.522;2023-02-16T15:45:58;62.05;;;30.67;;
56005;SDS011;41888;44.696;10.522;2023-02-16T15:51:09;76.07;;;33.85;;
56005;SDS011;41888;44.696;10.522;2023-02-16T15:53:59;69.28;;;30.88;;
56005;SDS011;41888;44.696;10.522;2023-02-16T15:56:37;62.67;;;31.48;;
56005;SDS011;41888;44.696;10.522;2023-02-16T15:59:57;64.80;;;32.25;;
56005;SDS011;41888;44.696;10.522;2023-02-16T16:04:40;62.25;;;30.20;;
56005;SDS011;41888;44.696;10.522;2023-02-16T16:07:16;67.35;;;34.17;;
56005;SDS011;41888;44.696;10.522;2023-02-16T16:09:45;65.63;;;31.65;;
56005;SDS011;41888;44.696;10.522;2023-02-16T16:12:13;66.35;;;33.22;;
56005;SDS011;41888;44.696;10.522;2023-02-16T16:14:55;62.78;;;34.65;;
56005;SDS011;41888;44.696;10.522;2023-02-16T16:17:25;68.22;;;32.20;;
56005;SDS011;41888;44.696;10.522;2023-02-16T16:19:54;64.57;;;31.42;;
56005;SDS011;41888;44.696;10.522;2023-02-16T16:24:59;226.38;;;99.70;;
56005;SDS011;41888;44.696;10.522;2023-02-16T16:27:30;118.85;;;51.50;;
56005;SDS011;41888;44.696;10.522;2023-02-16T16:31:01;63.38;;;32.22;;
56005;SDS011;41888;44.696;10.522;2023-02-16T16:33:04;62.88;;;32.05;;
56005;SDS011;41888;44.696;10.522;2023-02-16T16:38:01;64.47;;;33.00;;
56005;SDS011;41888;44.696;10.522;2023-02-16T16:40:37;70.85;;;34.38;;
56005;SDS011;41888;44.696;10.522;2023-02-16T16:43:06;72.63;;;34.53;;
56005;SDS011;41888;44.696;10.522;2023-02-16T16:45:46;72.55;;;34.83;;
56005;SDS011;41888;44.696;10.522;2023-02-16T16:48:18;64.15;;;33.08;;
56005;SDS011;41888;44.696;10.522;2023-02-16T16:50:45;72.05;;;33.63;;
56005;SDS011;41888;44.696;10.522;2023-02-16T16:55:54;63.53;;;31.73;;
56005;SDS011;41888;44.696;10.522;2023-02-16T16:58:20;76.38;;;35.45;;
56005;SDS011;41888;44.696;10.522;2023-02-16T17:00:47;73.38;;;34.22;;
56005;SDS011;41888;44.696;10.522;2023-02-16T17:03:16;77.75;;;39.22;;
56005;SDS011;41888;44.696;10.522;2023-02-16T17:05:43;76.03;;;36.67;;
56005;SDS011;41888;44.696;10.522;2023-02-16T17:08:10;70.88;;;35.15;;
56005;SDS011;41888;44.696;10.522;2023-02-16T17:10:37;63.33;;;31.50;;
56005;SDS011;41888;44.696;10.522;2023-02-16T17:13:05;66.97;;;34.53;;
56005;SDS011;41888;44.696;10.522;2023-02-16T17:15:42;68.97;;;33.33;;
56005;SDS011;41888;44.696;10.522;2023-02-16T17:18:13;67.55;;;34.47;;
56005;SDS011;41888;44.696;10.522;2023-02-16T17:20:41;72.03;;;32.17;;
56005;SDS011;41888;44.696;10.522;2023-02-16T17:23:09;69.38;;;33.17;;
56005;SDS011;41888;44.696;10.522;2023-02-16T17:25:37;66.18;;;31.83;;
56005;SDS011;41888;44.696;10.522;2023-02-16T17:28:03;66.68;;;32.13;;
56005;SDS011;41888;44.696;10.522;2023-02-16T17:30:30;76.85;;;34.42;;
56005;SDS011;41888;44.696;10.522;2023-02-16T17:32:56;70.90;;;34.08;;
56005;SDS011;41888;44.696;10.522;2023-02-16T17:35:23;73.18;;;35.42;;
56005;SDS011;41888;44.696;10.522;2023-02-16T17:37:49;63.75;;;32.15;;
56005;SDS011;41888;44.696;10.522;2023-02-16T17:40:18;80.60;;;37.13;;
56005;SDS011;41888;44.696;10.522;2023-02-16T17:42:46;79.18;;;37.83;;
56005;SDS011;41888;44.696;10.522;2023-02-16T17:45:14;76.03;;;34.65;;
56005;SDS011;41888;44.696;10.522;2023-02-16T17:47:43;75.63;;;34.30;;
56005;SDS011;41888;44.696;10.522;2023-02-16T17:50:13;97.18;;;43.60;;
56005;SDS011;41888;44.696;10.522;2023-02-16T17:52:40;81.68;;;37.88;;
56005;SDS011;41888;44.696;10.522;2023-02-16T17:55:08;90.70;;;38.03;;
56005;SDS011;41888;44.696;10.522;2023-02-16T17:57:34;88.15;;;39.85;;
56005;SDS011;41888;44.696;10.522;2023-02-16T18:00:02;86.20;;;37.92;;
56005;SDS011;41888;44.696;10.522;2023-02-16T18:02:29;85.20;;;37.42;;